sensor_id;sensor_type;location;lat;lon;timestamp;pressure;altitude;pressure_sealevel;temperature;humidity
15884;BME280;8040;50.254;10.960;2024-03-22T00:01:51;98841.25;;;9.04;67.93
15884;BME280;8040;50.254;10.960;2024-03-22T00:04:17;98860.44;;;9.12;68.10
15884;BME280;8040;50.254;10.960;2024-03-22T00:06:46;98875.81;;;9.22;68.15
15884;BME280;8040;50.254;10.960;2024-03-22T00:09:12;98807.47;;;8.86;67.97
15884;BME280;8040;50.254;10.960;2024-03-22T00:11:41;98803.16;;;8.80;68.59
15884;BME280;8040;50.254;10.960;2024-03-22T00:14:08;98851.28;;;9.03;68.27
15884;BME280;8040;50.254;10.960;2024-03-22T00:16:33;98863.13;;;9.12;68.62
15884;BME280;8040;50.254;10.960;2024-03-22T00:18:59;98850.19;;;8.99;68.53
15884;BME280;8040;50.254;10.960;2024-03-22T00:21:25;98811.81;;;8.82;68.83
15884;BME280;8040;50.254;10.960;2024-03-22T00:23:50;98849.88;;;9.16;68.75
15884;BME280;8040;50.254;10.960;2024-03-22T00:26:17;98816.94;;;8.84;68.58
15884;BME280;8040;50.254;10.960;2024-03-22T00:28:42;98790.47;;;8.66;68.68
15884;BME280;8040;50.254;10.960;2024-03-22T00:31:08;98837.19;;;9.01;68.74
15884;BME280;8040;50.254;10.960;2024-03-22T00:33:34;98836.41;;;9.01;68.81
15884;BME280;8040;50.254;10.960;2024-03-22T00:35:59;98847.75;;;8.98;68.47
15884;BME280;8040;50.254;10.960;2024-03-22T00:38:25;98820.50;;;8.74;68.61
15884;BME280;8040;50.254;10.960;2024-03-22T00:40:50;98822.94;;;8.76;69.33
15884;BME280;8040;50.254;10.960;2024-03-22T00:43:16;98837.50;;;8.85;68.89
15884;BME280;8040;50.254;10.960;2024-03-22T00:45:41;98770.53;;;8.37;69.02
15884;BME280;8040;50.254;10.960;2024-03-22T00:48:07;98834.81;;;8.80;69.25
15884;BME280;8040;50.254;10.960;2024-03-22T00:50:33;98829.38;;;8.80;68.89
15884;BME280;8040;50.254;10.960;2024-03-22T00:52:58;98748.09;;;8.21;69.28
15884;BME280;8040;50.254;10.960;2024-03-22T00:55:24;98828.88;;;8.73;69.29
15884;BME280;8040;50.254;10.960;2024-03-22T00:57:50;98765.13;;;8.37;69.69
15884;BME280;8040;50.254;10.960;2024-03-22T01:00:16;98793.19;;;8.61;69.41
15884;BME280;8040;50.254;10.960;2024-03-22T01:02:42;98805.38;;;8.58;68.94
15884;BME280;8040;50.254;10.960;2024-03-22T01:05:07;98788.38;;;8.33;69.94
15884;BME280;8040;50.254;10.960;2024-03-22T01:07:33;98812.94;;;8.56;69.82
15884;BME280;8040;50.254;10.960;2024-03-22T01:09:58;98773.25;;;8.32;69.60
15884;BME280;8040;50.254;10.960;2024-03-22T01:12:23;98806.47;;;8.42;69.82
15884;BME280;8040;50.254;10.960;2024-03-22T01:14:49;98781.34;;;8.27;70.12
15884;BME280;8040;50.254;10.960;2024-03-22T01:17:14;98795.41;;;8.39;70.10
15884;BME280;8040;50.254;10.960;2024-03-22T01:19:40;98781.59;;;8.40;69.44
15884;BME280;8040;50.254;10.960;2024-03-22T01:22:05;98768.63;;;8.32;69.39
15884;BME280;8040;50.254;10.960;2024-03-22T01:24:30;98794.03;;;8.61;69.22
15884;BME280;8040;50.254;10.960;2024-03-22T01:26:56;98818.63;;;8.65;69.63
15884;BME280;8040;50.254;10.960;2024-03-22T01:29:21;98806.75;;;8.46;69.98
15884;BME280;8040;50.254;10.960;2024-03-22T01:31:47;98777.31;;;8.24;70.33
15884;BME280;8040;50.254;10.960;2024-03-22T01:34:13;98817.03;;;8.39;70.51
15884;BME280;8040;50.254;10.960;2024-03-22T01:36:39;98778.88;;;8.15;70.09
15884;BME280;8040;50.254;10.960;2024-03-22T01:39:04;98822.16;;;8.45;70.03
15884;BME280;8040;50.254;10.960;2024-03-22T01:41:30;98786.22;;;8.25;69.88
15884;BME280;8040;50.254;10.960;2024-03-22T01:43:55;98812.44;;;8.29;70.45
15884;BME280;8040;50.254;10.960;2024-03-22T01:46:20;98755.94;;;7.93;70.08
15884;BME280;8040;50.254;10.960;2024-03-22T01:48:46;98755.94;;;7.98;70.05
15884;BME280;8040;50.254;10.960;2024-03-22T01:51:12;98760.53;;;8.02;69.77
15884;BME280;8040;50.254;10.960;2024-03-22T01:53:38;98807.84;;;8.20;70.29
15884;BME280;8040;50.254;10.960;2024-03-22T01:56:03;98753.75;;;7.80;70.07
15884;BME280;8040;50.254;10.960;2024-03-22T01:58:29;98769.72;;;7.86;70.24
15884;BME280;8040;50.254;10.960;2024-03-22T02:00:54;98787.25;;;7.94;70.22
15884;BME280;8040;50.254;10.960;2024-03-22T02:03:20;98803.47;;;8.04;70.21
15884;BME280;8040;50.254;10.960;2024-03-22T02:05:45;98797.53;;;7.97;70.40
15884;BME280;8040;50.254;10.960;2024-03-22T02:08:11;98750.53;;;7.73;70.79
15884;BME280;8040;50.254;10.960;2024-03-22T02:10:36;98782.41;;;7.96;70.23
15884;BME280;8040;50.254;10.960;2024-03-22T02:13:02;98764.31;;;7.86;69.84
15884;BME280;8040;50.254;10.960;2024-03-22T02:15:27;98734.88;;;7.65;70.05
15884;BME280;8040;50.254;10.960;2024-03-22T02:17:53;98768.38;;;7.89;70.02
15884;BME280;8040;50.254;10.960;2024-03-22T02:20:18;98717.03;;;7.49;70.19
15884;BME280;8040;50.254;10.960;2024-03-22T02:22:44;98677.03;;;7.26;69.95
15884;BME280;8040;50.254;10.960;2024-03-22T02:25:09;98670.56;;;7.32;70.37
15884;BME280;8040;50.254;10.960;2024-03-22T02:27:35;98719.47;;;7.75;70.09
15884;BME280;8040;50.254;10.960;2024-03-22T02:30:00;98745.66;;;7.85;70.40
15884;BME280;8040;50.254;10.960;2024-03-22T02:32:27;98742.69;;;7.76;70.42
15884;BME280;8040;50.254;10.960;2024-03-22T02:34:52;98750.53;;;7.98;70.98
15884;BME280;8040;50.254;10.960;2024-03-22T02:37:18;98655.47;;;7.26;70.41
15884;BME280;8040;50.254;10.960;2024-03-22T02:39:43;98752.69;;;8.01;70.72
15884;BME280;8040;50.254;10.960;2024-03-22T02:42:08;98712.44;;;7.84;70.54
15884;BME280;8040;50.254;10.960;2024-03-22T02:44:34;98696.53;;;7.73;70.71
15884;BME280;8040;50.254;10.960;2024-03-22T02:46:59;98735.41;;;7.92;70.74
15884;BME280;8040;50.254;10.960;2024-03-22T02:49:25;98686.53;;;7.68;70.65
15884;BME280;8040;50.254;10.960;2024-03-22T02:51:51;98711.91;;;7.92;70.74
15884;BME280;8040;50.254;10.960;2024-03-22T02:54:16;98738.91;;;8.02;70.57
15884;BME280;8040;50.254;10.960;2024-03-22T02:56:42;98736.22;;;8.02;71.10
15884;BME280;8040;50.254;10.960;2024-03-22T02:59:07;98707.88;;;7.90;71.17
15884;BME280;8040;50.254;10.960;2024-03-22T03:01:32;98676.00;;;7.67;71.30
15884;BME280;8040;50.254;10.960;2024-03-22T03:03:58;98722.44;;;7.94;71.40
15884;BME280;8040;50.254;10.960;2024-03-22T03:06:23;98707.88;;;7.95;71.19
15884;BME280;8040;50.254;10.960;2024-03-22T03:08:49;98742.13;;;8.14;70.97
15884;BME280;8040;50.254;10.960;2024-03-22T03:11:15;98671.13;;;7.74;71.04
15884;BME280;8040;50.254;10.960;2024-03-22T03:13:41;98719.22;;;8.02;71.05
15884;BME280;8040;50.254;10.960;2024-03-22T03:16:06;98739.72;;;8.03;71.08
15884;BME280;8040;50.254;10.960;2024-03-22T03:18:32;98732.16;;;8.00;71.29
15884;BME280;8040;50.254;10.960;2024-03-22T03:20:58;98680.31;;;7.83;70.93
15884;BME280;8040;50.254;10.960;2024-03-22T03:23:24;98728.09;;;8.07;70.90
15884;BME280;8040;50.254;10.960;2024-03-22T03:25:49;98718.13;;;8.03;71.44
15884;BME280;8040;50.254;10.960;2024-03-22T03:28:15;98661.97;;;7.60;71.62
15884;BME280;8040;50.254;10.960;2024-03-22T03:30:40;98683.56;;;7.65;71.38
15884;BME280;8040;50.254;10.960;2024-03-22T03:33:05;98692.47;;;7.75;71.80
15884;BME280;8040;50.254;10.960;2024-03-22T03:35:31;98660.59;;;7.52;71.59
15884;BME280;8040;50.254;10.960;2024-03-22T03:37:56;98676.00;;;7.62;71.53
15884;BME280;8040;50.254;10.960;2024-03-22T03:40:22;98629.28;;;7.36;71.49
15884;BME280;8040;50.254;10.960;2024-03-22T03:42:53;98712.44;;;7.84;71.77
15884;BME280;8040;50.254;10.960;2024-03-22T03:45:19;98687.06;;;7.70;71.93
15884;BME280;8040;50.254;10.960;2024-03-22T03:47:44;98663.56;;;7.56;71.48
15884;BME280;8040;50.254;10.960;2024-03-22T03:50:10;98645.50;;;7.51;71.69
15884;BME280;8040;50.254;10.960;2024-03-22T03:52:35;98728.91;;;7.98;71.35
15884;BME280;8040;50.254;10.960;2024-03-22T03:55:01;98657.66;;;7.54;71.35
15884;BME280;8040;50.254;10.960;2024-03-22T03:57:26;98720.00;;;7.97;71.24
15884;BME280;8040;50.254;10.960;2024-03-22T03:59:52;98716.50;;;7.97;71.39
15884;BME280;8040;50.254;10.960;2024-03-22T04:02:17;98713.78;;;8.07;70.84
15884;BME280;8040;50.254;10.960;2024-03-22T04:04:43;98688.97;;;7.90;71.21
15884;BME280;8040;50.254;10.960;2024-03-22T04:07:08;98669.00;;;7.71;71.21
15884;BME280;8040;50.254;10.960;2024-03-22T04:09:34;98710.56;;;7.95;71.27
15884;BME280;8040;50.254;10.960;2024-03-22T04:11:59;98703.56;;;7.89;71.29
15884;BME280;8040;50.254;10.960;2024-03-22T04:14:25;98711.09;;;7.87;71.51
15884;BME280;8040;50.254;10.960;2024-03-22T04:16:51;98674.91;;;7.63;70.99
15884;BME280;8040;50.254;10.960;2024-03-22T04:19:16;98653.84;;;7.45;71.08
15884;BME280;8040;50.254;10.960;2024-03-22T04:21:42;98644.69;;;7.41;71.09
15884;BME280;8040;50.254;10.960;2024-03-22T04:24:07;98691.66;;;7.65;71.09
15884;BME280;8040;50.254;10.960;2024-03-22T04:26:33;98691.09;;;7.63;71.23
15884;BME280;8040;50.254;10.960;2024-03-22T04:28:58;98688.13;;;7.59;71.12
15884;BME280;8040;50.254;10.960;2024-03-22T04:31:24;98686.25;;;7.50;71.17
15884;BME280;8040;50.254;10.960;2024-03-22T04:33:49;98627.94;;;7.14;71.41
15884;BME280;8040;50.254;10.960;2024-03-22T04:36:15;98675.44;;;7.35;71.91
15884;BME280;8040;50.254;10.960;2024-03-22T04:38:41;98614.16;;;7.01;71.37
15884;BME280;8040;50.254;10.960;2024-03-22T04:41:06;98604.97;;;6.87;71.52
15884;BME280;8040;50.254;10.960;2024-03-22T04:43:31;98673.56;;;7.40;71.66
15884;BME280;8040;50.254;10.960;2024-03-22T04:45:57;98609.31;;;7.03;71.43
15884;BME280;8040;50.254;10.960;2024-03-22T04:48:23;98614.16;;;7.11;71.21
15884;BME280;8040;50.254;10.960;2024-03-22T04:50:52;98640.06;;;7.17;71.16
15884;BME280;8040;50.254;10.960;2024-03-22T04:53:21;98630.59;;;7.09;70.93
15884;BME280;8040;50.254;10.960;2024-03-22T04:55:47;98674.09;;;7.38;71.22
15884;BME280;8040;50.254;10.960;2024-03-22T04:58:20;98631.47;;;7.20;70.91
15884;BME280;8040;50.254;10.960;2024-03-22T05:00:48;98684.09;;;7.42;71.00
15884;BME280;8040;50.254;10.960;2024-03-22T05:03:14;98657.91;;;7.28;71.00
15884;BME280;8040;50.254;10.960;2024-03-22T05:05:40;98623.84;;;7.07;71.47
15884;BME280;8040;50.254;10.960;2024-03-22T05:08:06;98655.19;;;7.22;71.40
15884;BME280;8040;50.254;10.960;2024-03-22T05:10:32;98624.69;;;7.12;71.73
15884;BME280;8040;50.254;10.960;2024-03-22T05:12:58;98689.47;;;7.52;71.79
15884;BME280;8040;50.254;10.960;2024-03-22T05:15:24;98670.88;;;7.55;71.83
15884;BME280;8040;50.254;10.960;2024-03-22T05:17:53;98677.09;;;7.66;71.98
15884;BME280;8040;50.254;10.960;2024-03-22T05:20:19;98649.28;;;7.55;71.29
15884;BME280;8040;50.254;10.960;2024-03-22T05:22:47;98664.38;;;7.71;70.93
15884;BME280;8040;50.254;10.960;2024-03-22T05:25:13;98609.59;;;7.36;70.93
15884;BME280;8040;50.254;10.960;2024-03-22T05:27:40;98661.41;;;7.73;70.81
15884;BME280;8040;50.254;10.960;2024-03-22T05:30:12;98619.28;;;7.52;71.24
15884;BME280;8040;50.254;10.960;2024-03-22T05:32:39;98656.03;;;7.83;71.10
15884;BME280;8040;50.254;10.960;2024-03-22T05:35:05;98656.81;;;7.88;71.21
15884;BME280;8040;50.254;10.960;2024-03-22T05:37:31;98660.34;;;7.89;71.36
15884;BME280;8040;50.254;10.960;2024-03-22T05:39:56;98609.03;;;7.64;70.91
15884;BME280;8040;50.254;10.960;2024-03-22T05:42:22;98595.56;;;7.59;70.55
15884;BME280;8040;50.254;10.960;2024-03-22T05:44:47;98646.28;;;7.97;70.24
15884;BME280;8040;50.254;10.960;2024-03-22T05:47:13;98630.91;;;7.87;70.67
15884;BME280;8040;50.254;10.960;2024-03-22T05:49:38;98650.84;;;8.01;70.81
15884;BME280;8040;50.254;10.960;2024-03-22T05:52:04;98587.44;;;7.64;71.28
15884;BME280;8040;50.254;10.960;2024-03-22T05:54:30;98582.34;;;7.67;70.58
15884;BME280;8040;50.254;10.960;2024-03-22T05:56:56;98602.00;;;7.83;70.53
15884;BME280;8040;50.254;10.960;2024-03-22T05:59:21;98639.47;;;8.14;70.33
15884;BME280;8040;50.254;10.960;2024-03-22T06:01:47;98622.16;;;8.15;70.93
15884;BME280;8040;50.254;10.960;2024-03-22T06:04:12;98619.78;;;8.09;70.52
15884;BME280;8040;50.254;10.960;2024-03-22T06:06:38;98623.00;;;8.16;70.48
15884;BME280;8040;50.254;10.960;2024-03-22T06:09:07;98566.59;;;7.94;70.46
15884;BME280;8040;50.254;10.960;2024-03-22T06:11:36;98556.88;;;7.88;70.45
15884;BME280;8040;50.254;10.960;2024-03-22T06:14:01;98533.41;;;7.84;70.37
15884;BME280;8040;50.254;10.960;2024-03-22T06:16:27;98583.28;;;8.16;70.18
15884;BME280;8040;50.254;10.960;2024-03-22T06:18:52;98575.19;;;8.16;70.34
15884;BME280;8040;50.254;10.960;2024-03-22T06:21:18;98591.69;;;8.20;70.26
15884;BME280;8040;50.254;10.960;2024-03-22T06:23:51;98587.31;;;8.29;69.76
15884;BME280;8040;50.254;10.960;2024-03-22T06:26:17;98571.91;;;8.14;69.92
15884;BME280;8040;50.254;10.960;2024-03-22T06:28:43;98613.44;;;8.53;69.75
15884;BME280;8040;50.254;10.960;2024-03-22T06:31:08;98609.88;;;8.63;69.57
15884;BME280;8040;50.254;10.960;2024-03-22T06:33:34;98572.09;;;8.43;69.58
15884;BME280;8040;50.254;10.960;2024-03-22T06:36:00;98561.25;;;8.53;69.95
15884;BME280;8040;50.254;10.960;2024-03-22T06:38:26;98615.63;;;8.95;69.78
15884;BME280;8040;50.254;10.960;2024-03-22T06:40:51;98618.81;;;9.07;68.94
15884;BME280;8040;50.254;10.960;2024-03-22T06:43:17;98520.69;;;8.53;69.05
15884;BME280;8040;50.254;10.960;2024-03-22T06:45:42;98589.09;;;8.97;69.09
15884;BME280;8040;50.254;10.960;2024-03-22T06:48:07;98587.41;;;9.11;68.62
15884;BME280;8040;50.254;10.960;2024-03-22T06:50:33;98547.97;;;9.00;68.23
15884;BME280;8040;50.254;10.960;2024-03-22T06:52:58;98604.53;;;9.35;67.68
15884;BME280;8040;50.254;10.960;2024-03-22T06:55:25;98602.25;;;9.47;67.69
15884;BME280;8040;50.254;10.960;2024-03-22T06:57:51;98576.88;;;9.43;67.33
15884;BME280;8040;50.254;10.960;2024-03-22T07:00:17;98610.69;;;9.74;66.88
15884;BME280;8040;50.254;10.960;2024-03-22T07:02:43;98600.84;;;9.83;66.50
15884;BME280;8040;50.254;10.960;2024-03-22T07:05:09;98580.31;;;9.77;66.65
15884;BME280;8040;50.254;10.960;2024-03-22T07:07:35;98575.50;;;9.74;66.17
15884;BME280;8040;50.254;10.960;2024-03-22T07:10:04;98587.00;;;9.61;66.17
15884;BME280;8040;50.254;10.960;2024-03-22T07:12:33;98602.22;;;9.80;66.23
15884;BME280;8040;50.254;10.960;2024-03-22T07:15:02;98543.31;;;9.39;66.95
15884;BME280;8040;50.254;10.960;2024-03-22T07:17:33;98548.72;;;9.39;66.75
15884;BME280;8040;50.254;10.960;2024-03-22T07:19:58;98609.38;;;9.71;66.94
15884;BME280;8040;50.254;10.960;2024-03-22T07:22:23;98608.53;;;9.71;67.15
15884;BME280;8040;50.254;10.960;2024-03-22T07:24:49;98596.91;;;9.70;67.67
15884;BME280;8040;50.254;10.960;2024-03-22T07:27:16;98565.78;;;9.68;67.76
15884;BME280;8040;50.254;10.960;2024-03-22T07:29:41;98561.13;;;9.73;68.04
15884;BME280;8040;50.254;10.960;2024-03-22T07:32:07;98600.34;;;10.09;67.69
15884;BME280;8040;50.254;10.960;2024-03-22T07:34:33;98539.34;;;9.83;67.01
15884;BME280;8040;50.254;10.960;2024-03-22T07:36:58;98602.91;;;10.24;67.08
15884;BME280;8040;50.254;10.960;2024-03-22T07:39:24;98532.38;;;10.01;67.57
15884;BME280;8040;50.254;10.960;2024-03-22T07:41:50;98575.31;;;10.41;66.67
15884;BME280;8040;50.254;10.960;2024-03-22T07:44:15;98568.84;;;10.37;66.46
15884;BME280;8040;50.254;10.960;2024-03-22T07:46:44;98589.03;;;10.49;66.39
15884;BME280;8040;50.254;10.960;2024-03-22T07:49:10;98556.97;;;10.33;65.96
15884;BME280;8040;50.254;10.960;2024-03-22T07:51:36;98592.88;;;10.67;66.28
15884;BME280;8040;50.254;10.960;2024-03-22T07:54:01;98591.25;;;10.66;66.39
15884;BME280;8040;50.254;10.960;2024-03-22T07:56:28;98576.34;;;10.45;65.80
15884;BME280;8040;50.254;10.960;2024-03-22T07:58:53;98542.88;;;10.31;65.45
15884;BME280;8040;50.254;10.960;2024-03-22T08:01:18;98584.56;;;10.58;66.13
15884;BME280;8040;50.254;10.960;2024-03-22T08:03:53;98594.28;;;10.83;66.41
15884;BME280;8040;50.254;10.960;2024-03-22T08:06:19;98548.88;;;10.70;65.53
15884;BME280;8040;50.254;10.960;2024-03-22T08:08:44;98522.56;;;10.52;65.48
15884;BME280;8040;50.254;10.960;2024-03-22T08:11:10;98578.72;;;10.88;65.34
15884;BME280;8040;50.254;10.960;2024-03-22T08:13:36;98566.34;;;10.82;65.62
15884;BME280;8040;50.254;10.960;2024-03-22T08:16:01;98572.63;;;10.96;65.77
15884;BME280;8040;50.254;10.960;2024-03-22T08:18:27;98544.69;;;10.96;65.66
15884;BME280;8040;50.254;10.960;2024-03-22T08:20:53;98578.63;;;11.30;65.67
15884;BME280;8040;50.254;10.960;2024-03-22T08:23:19;98568.41;;;11.41;65.28
15884;BME280;8040;50.254;10.960;2024-03-22T08:25:46;98541.31;;;11.36;64.92
15884;BME280;8040;50.254;10.960;2024-03-22T08:28:11;98538.53;;;11.41;64.93
15884;BME280;8040;50.254;10.960;2024-03-22T08:30:39;98558.41;;;11.55;64.50
15884;BME280;8040;50.254;10.960;2024-03-22T08:33:05;98552.97;;;11.55;64.65
15884;BME280;8040;50.254;10.960;2024-03-22T08:35:30;98556.63;;;11.64;64.67
15884;BME280;8040;50.254;10.960;2024-03-22T08:37:56;98549.09;;;11.61;64.36
15884;BME280;8040;50.254;10.960;2024-03-22T08:40:22;98513.28;;;11.40;64.90
15884;BME280;8040;50.254;10.960;2024-03-22T08:42:48;98526.38;;;11.52;65.07
15884;BME280;8040;50.254;10.960;2024-03-22T08:45:15;98517.53;;;11.46;64.81
15884;BME280;8040;50.254;10.960;2024-03-22T08:47:42;98503.06;;;11.51;64.02
15884;BME280;8040;50.254;10.960;2024-03-22T08:50:08;98441.22;;;11.16;65.00
15884;BME280;8040;50.254;10.960;2024-03-22T08:52:49;98526.75;;;11.64;63.73
15884;BME280;8040;50.254;10.960;2024-03-22T08:55:14;98529.03;;;11.57;64.21
15884;BME280;8040;50.254;10.960;2024-03-22T08:57:39;98460.94;;;11.21;64.02
15884;BME280;8040;50.254;10.960;2024-03-22T09:00:05;98531.19;;;11.73;64.54
15884;BME280;8040;50.254;10.960;2024-03-22T09:02:33;98525.50;;;11.88;63.85
15884;BME280;8040;50.254;10.960;2024-03-22T09:04:59;98495.34;;;11.85;64.56
15884;BME280;8040;50.254;10.960;2024-03-22T09:07:26;98507.97;;;12.21;64.08
15884;BME280;8040;50.254;10.960;2024-03-22T09:09:52;98514.56;;;12.42;63.55
15884;BME280;8040;50.254;10.960;2024-03-22T09:12:19;98454.78;;;12.29;62.64
15884;BME280;8040;50.254;10.960;2024-03-22T09:14:44;98497.66;;;12.81;62.11
15884;BME280;8040;50.254;10.960;2024-03-22T09:17:09;98475.38;;;12.79;61.73
15884;BME280;8040;50.254;10.960;2024-03-22T09:19:35;98499.72;;;12.97;61.38
15884;BME280;8040;50.254;10.960;2024-03-22T09:22:00;98465.50;;;12.83;61.62
15884;BME280;8040;50.254;10.960;2024-03-22T09:24:25;98487.75;;;12.98;62.00
15884;BME280;8040;50.254;10.960;2024-03-22T09:26:51;98471.28;;;13.03;61.75
15884;BME280;8040;50.254;10.960;2024-03-22T09:29:22;98428.06;;;12.88;61.66
15884;BME280;8040;50.254;10.960;2024-03-22T09:31:47;98487.84;;;13.37;61.36
15884;BME280;8040;50.254;10.960;2024-03-22T09:34:12;98470.69;;;13.37;60.32
15884;BME280;8040;50.254;10.960;2024-03-22T09:36:38;98482.81;;;13.53;60.24
15884;BME280;8040;50.254;10.960;2024-03-22T09:39:04;98440.72;;;13.37;60.60
15884;BME280;8040;50.254;10.960;2024-03-22T09:41:31;98489.97;;;13.71;60.39
15884;BME280;8040;50.254;10.960;2024-03-22T09:43:58;98451.88;;;13.57;59.83
15884;BME280;8040;50.254;10.960;2024-03-22T09:46:24;98477.69;;;13.82;59.64
15884;BME280;8040;50.254;10.960;2024-03-22T09:48:51;98443.44;;;13.67;59.83
15884;BME280;8040;50.254;10.960;2024-03-22T09:51:17;98432.72;;;13.71;59.29
15884;BME280;8040;50.254;10.960;2024-03-22T09:53:48;98453.66;;;13.92;58.90
15884;BME280;8040;50.254;10.960;2024-03-22T09:56:15;98464.75;;;14.04;59.67
15884;BME280;8040;50.254;10.960;2024-03-22T09:58:41;98402.94;;;13.83;58.82
15884;BME280;8040;50.254;10.960;2024-03-22T10:01:07;98422.56;;;14.02;58.53
15884;BME280;8040;50.254;10.960;2024-03-22T10:03:33;98453.09;;;14.21;58.55
15884;BME280;8040;50.254;10.960;2024-03-22T10:05:59;98393.84;;;14.04;58.10
15884;BME280;8040;50.254;10.960;2024-03-22T10:08:24;98447.03;;;14.41;57.71
15884;BME280;8040;50.254;10.960;2024-03-22T10:10:50;98409.16;;;14.31;58.07
15884;BME280;8040;50.254;10.960;2024-03-22T10:13:16;98369.81;;;14.23;57.96
15884;BME280;8040;50.254;10.960;2024-03-22T10:15:42;98383.97;;;14.51;57.57
15884;BME280;8040;50.254;10.960;2024-03-22T10:18:09;98377.69;;;14.59;57.03
15884;BME280;8040;50.254;10.960;2024-03-22T10:20:35;98359.25;;;14.64;56.48
15884;BME280;8040;50.254;10.960;2024-03-22T10:23:00;98417.94;;;15.21;54.46
15884;BME280;8040;50.254;10.960;2024-03-22T10:25:27;98399.78;;;15.17;54.40
15884;BME280;8040;50.254;10.960;2024-03-22T10:27:55;98390.59;;;15.30;54.01
15884;BME280;8040;50.254;10.960;2024-03-22T10:30:22;98351.41;;;15.17;52.93
15884;BME280;8040;50.254;10.960;2024-03-22T10:32:51;98371.63;;;15.33;52.94
15884;BME280;8040;50.254;10.960;2024-03-22T10:35:18;98397.75;;;15.60;52.73
15884;BME280;8040;50.254;10.960;2024-03-22T10:37:44;98371.38;;;15.64;52.76
15884;BME280;8040;50.254;10.960;2024-03-22T10:40:10;98378.91;;;15.96;52.47
15884;BME280;8040;50.254;10.960;2024-03-22T10:42:38;98360.22;;;15.98;52.07
15884;BME280;8040;50.254;10.960;2024-03-22T10:45:05;98381.44;;;16.29;52.08
15884;BME280;8040;50.254;10.960;2024-03-22T10:47:33;98324.00;;;16.01;51.47
15884;BME280;8040;50.254;10.960;2024-03-22T10:50:04;98370.03;;;16.48;51.03
15884;BME280;8040;50.254;10.960;2024-03-22T10:52:41;98309.84;;;16.19;50.75
15884;BME280;8040;50.254;10.960;2024-03-22T10:55:19;98343.25;;;16.53;50.36
15884;BME280;8040;50.254;10.960;2024-03-22T10:57:48;98282.28;;;16.24;49.64
15884;BME280;8040;50.254;10.960;2024-03-22T11:00:14;98331.44;;;16.61;49.98
15884;BME280;8040;50.254;10.960;2024-03-22T11:02:45;98360.91;;;16.76;49.67
15884;BME280;8040;50.254;10.960;2024-03-22T11:05:20;98345.31;;;16.77;49.45
15884;BME280;8040;50.254;10.960;2024-03-22T11:07:45;98299.09;;;16.55;49.40
15884;BME280;8040;50.254;10.960;2024-03-22T11:10:12;98338.59;;;16.86;49.43
15884;BME280;8040;50.254;10.960;2024-03-22T11:12:39;98320.06;;;16.83;49.69
15884;BME280;8040;50.254;10.960;2024-03-22T11:15:05;98315.56;;;16.99;49.28
15884;BME280;8040;50.254;10.960;2024-03-22T11:17:33;98309.28;;;16.99;49.41
15884;BME280;8040;50.254;10.960;2024-03-22T11:19:59;98298.34;;;17.11;49.71
15884;BME280;8040;50.254;10.960;2024-03-22T11:22:27;98309.22;;;17.31;49.03
15884;BME280;8040;50.254;10.960;2024-03-22T11:24:53;98275.41;;;17.15;48.98
15884;BME280;8040;50.254;10.960;2024-03-22T11:27:18;98285.47;;;17.23;48.33
15884;BME280;8040;50.254;10.960;2024-03-22T11:29:47;98246.03;;;17.04;48.42
15884;BME280;8040;50.254;10.960;2024-03-22T11:32:16;98290.03;;;17.31;48.14
15884;BME280;8040;50.254;10.960;2024-03-22T11:34:42;98295.50;;;17.31;47.95
15884;BME280;8040;50.254;10.960;2024-03-22T11:37:07;98280.53;;;17.17;48.06
15884;BME280;8040;50.254;10.960;2024-03-22T11:39:38;98283.63;;;17.27;48.22
15884;BME280;8040;50.254;10.960;2024-03-22T11:42:05;98187.41;;;16.60;47.82
15884;BME280;8040;50.254;10.960;2024-03-22T11:44:32;98275.53;;;17.19;48.13
15884;BME280;8040;50.254;10.960;2024-03-22T11:46:59;98226.94;;;17.07;48.61
15884;BME280;8040;50.254;10.960;2024-03-22T11:49:24;98285.84;;;17.46;48.37
15884;BME280;8040;50.254;10.960;2024-03-22T11:51:52;98261.72;;;17.27;48.07
15884;BME280;8040;50.254;10.960;2024-03-22T11:54:20;98276.47;;;17.47;47.91
15884;BME280;8040;50.254;10.960;2024-03-22T11:56:46;98239.88;;;17.31;47.92
15884;BME280;8040;50.254;10.960;2024-03-22T11:59:12;98225.47;;;17.34;47.34
15884;BME280;8040;50.254;10.960;2024-03-22T12:01:38;98241.97;;;17.46;47.18
15884;BME280;8040;50.254;10.960;2024-03-22T12:04:04;98253.72;;;17.58;47.23
15884;BME280;8040;50.254;10.960;2024-03-22T12:06:29;98197.28;;;17.45;47.12
15884;BME280;8040;50.254;10.960;2024-03-22T12:08:55;98245.84;;;17.57;46.06
15884;BME280;8040;50.254;10.960;2024-03-22T12:11:20;98258.06;;;17.47;46.10
15884;BME280;8040;50.254;10.960;2024-03-22T12:13:46;98257.84;;;17.40;47.19
15884;BME280;8040;50.254;10.960;2024-03-22T12:16:12;98253.50;;;17.51;47.26
15884;BME280;8040;50.254;10.960;2024-03-22T12:18:37;98241.84;;;17.42;47.14
15884;BME280;8040;50.254;10.960;2024-03-22T12:21:03;98209.34;;;17.32;46.64
15884;BME280;8040;50.254;10.960;2024-03-22T12:23:28;98247.66;;;17.53;46.51
15884;BME280;8040;50.254;10.960;2024-03-22T12:25:53;98218.50;;;17.36;46.49
15884;BME280;8040;50.254;10.960;2024-03-22T12:28:21;98233.28;;;17.56;46.11
15884;BME280;8040;50.254;10.960;2024-03-22T12:30:47;98174.09;;;17.19;46.61
15884;BME280;8040;50.254;10.960;2024-03-22T12:33:12;98163.81;;;17.16;46.29
15884;BME280;8040;50.254;10.960;2024-03-22T12:35:41;98179.59;;;17.43;46.10
15884;BME280;8040;50.254;10.960;2024-03-22T12:38:07;98164.81;;;17.47;45.77
15884;BME280;8040;50.254;10.960;2024-03-22T12:40:36;98208.84;;;17.90;45.95
15884;BME280;8040;50.254;10.960;2024-03-22T12:43:02;98194.31;;;17.90;45.52
15884;BME280;8040;50.254;10.960;2024-03-22T12:45:28;98201.72;;;18.01;44.74
15884;BME280;8040;50.254;10.960;2024-03-22T12:47:59;98208.91;;;18.06;44.67
15884;BME280;8040;50.254;10.960;2024-03-22T12:50:26;98203.06;;;18.07;44.57
15884;BME280;8040;50.254;10.960;2024-03-22T12:52:52;98191.47;;;18.14;44.56
15884;BME280;8040;50.254;10.960;2024-03-22T12:55:17;98153.03;;;17.86;44.48
15884;BME280;8040;50.254;10.960;2024-03-22T12:57:44;98190.69;;;18.13;43.66
15884;BME280;8040;50.254;10.960;2024-03-22T13:00:10;98159.44;;;17.90;43.42
15884;BME280;8040;50.254;10.960;2024-03-22T13:02:44;98177.47;;;18.03;43.46